sensor_id;sensor_type;location;lat;lon;timestamp;temperature;humidity
13600;DHT22;6871;51.34740610;4.31323160;2022-10-16T00:00:11;18.10;86.30
13600;DHT22;6871;51.34740610;4.31323160;2022-10-16T00:02:40;18.10;86.40
13600;DHT22;6871;51.34740610;4.31323160;2022-10-16T00:05:09;18.10;86.40
13600;DHT22;6871;51.34740610;4.31323160;2022-10-16T00:07:39;18.10;87.20
13600;DHT22;6871;51.34740610;4.31323160;2022-10-16T00:10:09;18.10;86.30
13600;DHT22;6871;51.34740610;4.31323160;2022-10-16T00:12:38;18.10;86.30
13600;DHT22;6871;51.34740610;4.31323160;2022-10-16T00:15:09;18.10;86.30
13600;DHT22;6871;51.34740610;4.31323160;2022-10-16T00:17:38;18.00;86.30
13600;DHT22;6871;51.34740610;4.31323160;2022-10-16T00:20:09;18.10;86.50
13600;DHT22;6871;51.34740610;4.31323160;2022-10-16T00:22:38;18.10;86.50
13600;DHT22;6871;51.34740610;4.31323160;2022-10-16T00:25:08;18.00;86.30
13600;DHT22;6871;51.34740610;4.31323160;2022-10-16T00:27:37;18.10;86.30
13600;DHT22;6871;51.34740610;4.31323160;2022-10-16T00:30:09;18.00;86.30
13600;DHT22;6871;51.34740610;4.31323160;2022-10-16T00:32:38;18.10;86.40
13600;DHT22;6871;51.34740610;4.31323160;2022-10-16T00:35:08;18.00;86.40
13600;DHT22;6871;51.34740610;4.31323160;2022-10-16T00:37:37;18.10;86.50
13600;DHT22;6871;51.34740610;4.31323160;2022-10-16T00:40:09;18.00;86.10
13600;DHT22;6871;51.34740610;4.31323160;2022-10-16T00:42:38;18.00;86.30
13600;DHT22;6871;51.34740610;4.31323160;2022-10-16T00:45:10;18.00;86.30
13600;DHT22;6871;51.34740610;4.31323160;2022-10-16T00:47:42;18.00;86.30
13600;DHT22;6871;51.34740610;4.31323160;2022-10-16T05:40:52;17.80;86.50
13600;DHT22;6871;51.34740610;4.31323160;2022-10-16T05:43:24;17.80;86.40
13600;DHT22;6871;51.34740610;4.31323160;2022-10-16T05:45:57;17.80;86.50
13600;DHT22;6871;51.34740610;4.31323160;2022-10-16T05:48:27;17.80;86.60
13600;DHT22;6871;51.34740610;4.31323160;2022-10-16T05:51:00;17.80;86.50
13600;DHT22;6871;51.34740610;4.31323160;2022-10-16T05:53:32;17.80;86.50
13600;DHT22;6871;51.34740610;4.31323160;2022-10-16T05:56:02;17.80;86.40
13600;DHT22;6871;51.34740610;4.31323160;2022-10-16T05:58:32;17.80;86.40
13600;DHT22;6871;51.34740610;4.31323160;2022-10-16T06:01:05;17.80;86.50
13600;DHT22;6871;51.34740610;4.31323160;2022-10-16T06:03:35;17.80;86.50
13600;DHT22;6871;51.34740610;4.31323160;2022-10-16T06:06:14;17.80;86.50
13600;DHT22;6871;51.34740610;4.31323160;2022-10-16T06:08:45;17.90;86.50
13600;DHT22;6871;51.34740610;4.31323160;2022-10-16T06:11:16;17.80;86.40
13600;DHT22;6871;51.34740610;4.31323160;2022-10-16T06:13:48;17.80;86.50
13600;DHT22;6871;51.34740610;4.31323160;2022-10-16T06:16:17;17.80;86.50
13600;DHT22;6871;51.34740610;4.31323160;2022-10-16T06:18:46;17.70;87.10
13600;DHT22;6871;51.34740610;4.31323160;2022-10-16T06:21:18;17.70;87.10
13600;DHT22;6871;51.34740610;4.31323160;2022-10-16T06:23:48;17.80;86.90
13600;DHT22;6871;51.34740610;4.31323160;2022-10-16T06:26:19;17.80;86.70
13600;DHT22;6871;51.34740610;4.31323160;2022-10-16T06:28:49;17.80;86.60
13600;DHT22;6871;51.34740610;4.31323160;2022-10-16T06:31:18;17.80;87.00
13600;DHT22;6871;51.34740610;4.31323160;2022-10-16T06:33:50;17.80;86.90
13600;DHT22;6871;51.34740610;4.31323160;2022-10-16T06:36:21;17.80;86.90
13600;DHT22;6871;51.34740610;4.31323160;2022-10-16T06:38:50;17.80;86.70
13600;DHT22;6871;51.34740610;4.31323160;2022-10-16T06:41:21;17.80;86.60
13600;DHT22;6871;51.34740610;4.31323160;2022-10-16T06:43:51;17.80;86.60
13600;DHT22;6871;51.34740610;4.31323160;2022-10-16T06:46:22;17.80;86.60
13600;DHT22;6871;51.34740610;4.31323160;2022-10-16T06:48:52;17.80;86.50
13600;DHT22;6871;51.34740610;4.31323160;2022-10-16T06:51:23;17.80;86.50
13600;DHT22;6871;51.34740610;4.31323160;2022-10-16T06:53:54;17.80;86.50
13600;DHT22;6871;51.34740610;4.31323160;2022-10-16T06:56:26;17.80;86.50
13600;DHT22;6871;51.34740610;4.31323160;2022-10-16T06:58:57;17.80;86.50
13600;DHT22;6871;51.34740610;4.31323160;2022-10-16T07:01:27;17.80;86.30
13600;DHT22;6871;51.34740610;4.31323160;2022-10-16T07:03:56;17.90;86.50
13600;DHT22;6871;51.34740610;4.31323160;2022-10-16T07:06:26;17.90;86.40
13600;DHT22;6871;51.34740610;4.31323160;2022-10-16T07:08:56;17.90;86.50
13600;DHT22;6871;51.34740610;4.31323160;2022-10-16T07:11:26;17.90;86.40
13600;DHT22;6871;51.34740610;4.31323160;2022-10-16T07:13:55;17.90;86.40
13600;DHT22;6871;51.34740610;4.31323160;2022-10-16T07:16:25;17.90;86.30
13600;DHT22;6871;51.34740610;4.31323160;2022-10-16T07:18:55;17.90;86.60
13600;DHT22;6871;51.34740610;4.31323160;2022-10-16T07:21:27;17.80;86.90
13600;DHT22;6871;51.34740610;4.31323160;2022-10-16T07:23:58;17.90;86.70
13600;DHT22;6871;51.34740610;4.31323160;2022-10-16T07:26:32;17.90;86.70
13600;DHT22;6871;51.34740610;4.31323160;2022-10-16T07:29:09;17.90;86.50
13600;DHT22;6871;51.34740610;4.31323160;2022-10-16T07:31:39;18.00;86.20
13600;DHT22;6871;51.34740610;4.31323160;2022-10-16T07:34:12;18.00;86.10
13600;DHT22;6871;51.34740610;4.31323160;2022-10-16T07:36:42;18.00;86.00
13600;DHT22;6871;51.34740610;4.31323160;2022-10-16T07:39:11;18.10;86.00
13600;DHT22;6871;51.34740610;4.31323160;2022-10-16T07:41:41;18.10;85.80
13600;DHT22;6871;51.34740610;4.31323160;2022-10-16T07:44:10;18.10;85.60
13600;DHT22;6871;51.34740610;4.31323160;2022-10-16T07:46:39;18.10;85.60
13600;DHT22;6871;51.34740610;4.31323160;2022-10-16T07:49:10;18.10;85.50
13600;DHT22;6871;51.34740610;4.31323160;2022-10-16T07:51:39;18.20;85.40
13600;DHT22;6871;51.34740610;4.31323160;2022-10-16T07:54:10;18.20;85.40
13600;DHT22;6871;51.34740610;4.31323160;2022-10-16T07:56:41;18.20;85.90
13600;DHT22;6871;51.34740610;4.31323160;2022-10-16T07:59:10;18.20;85.70
13600;DHT22;6871;51.34740610;4.31323160;2022-10-16T08:01:40;18.20;85.70
13600;DHT22;6871;51.34740610;4.31323160;2022-10-16T08:04:10;18.20;85.70
13600;DHT22;6871;51.34740610;4.31323160;2022-10-16T08:06:41;18.20;86.10
13600;DHT22;6871;51.34740610;4.31323160;2022-10-16T08:09:11;18.20;85.90
